createdAt,value
2023-05-08T00:00:08.099Z,100.00
2023-05-08T00:05:09.548Z,100.00
2023-05-08T00:10:11.919Z,100.00
2023-05-08T00:15:13.459Z,100.00
2023-05-08T00:20:15.162Z,100.00
2023-05-08T00:25:16.671Z,100.00
2023-05-08T00:30:18.227Z,100.00
2023-05-08T00:35:19.728Z,100.00
2023-05-08T00:40:21.111Z,100.00
2023-05-08T00:45:22.580Z,100.00
2023-05-08T00:50:23.953Z,100.00
2023-05-08T00:55:25.413Z,100.00
2023-05-08T01:00:26.938Z,100.00
2023-05-08T01:05:28.385Z,100.00
2023-05-08T01:10:37.296Z,100.00
2023-05-08T01:15:43.491Z,100.00
2023-05-08T01:21:11.627Z,100.00
2023-05-08T01:26:31.615Z,100.00
2023-05-08T01:31:52.230Z,100.00
2023-05-08T01:36:58.301Z,100.00
2023-05-08T01:42:02.748Z,100.00
2023-05-08T01:47:06.837Z,100.00
2023-05-08T01:52:18.667Z,100.00
2023-05-08T01:57:21.395Z,100.00
2023-05-08T02:02:23.029Z,100.00
2023-05-08T02:07:25.775Z,100.00
2023-05-08T02:12:28.486Z,100.00
2023-05-08T02:17:30.763Z,100.00
2023-05-08T02:22:32.711Z,100.00
2023-05-08T02:27:34.686Z,100.00
2023-05-08T02:32:36.492Z,100.00
2023-05-08T02:37:38.234Z,100.00
2023-05-08T02:42:40.618Z,100.00
2023-05-08T02:47:47.462Z,100.00
2023-05-08T02:52:51.036Z,100.00
2023-05-08T02:58:17.880Z,100.00
2023-05-08T03:03:28.075Z,100.00
2023-05-08T03:08:31.066Z,100.00
2023-05-08T03:13:34.662Z,100.00
2023-05-08T03:18:41.317Z,100.00
2023-05-08T03:23:43.292Z,100.00
2023-05-08T03:28:46.480Z,100.00
2023-05-08T03:33:48.889Z,100.00
2023-05-08T03:38:50.373Z,100.00
2023-05-08T03:43:52.307Z,100.00
2023-05-08T03:48:55.073Z,100.00
2023-05-08T03:53:57.094Z,100.00
2023-05-08T03:59:05.730Z,100.00
2023-05-08T04:04:17.731Z,100.00
2023-05-08T04:09:20.289Z,100.00
2023-05-08T04:14:24.394Z,100.00
2023-05-08T04:19:28.788Z,100.00
2023-05-08T04:24:32.712Z,100.00
2023-05-08T04:29:34.912Z,100.00
2023-05-08T04:34:37.577Z,100.00
2023-05-08T04:39:40.957Z,100.00
2023-05-08T04:44:43.440Z,100.00
2023-05-08T04:49:45.966Z,100.00
2023-05-08T04:54:47.594Z,100.00
2023-05-08T04:59:49.107Z,100.00
2023-05-08T05:04:51.182Z,100.00
2023-05-08T05:09:52.818Z,100.00
2023-05-08T05:14:54.910Z,100.00
2023-05-08T05:19:57.451Z,100.00
2023-05-08T05:24:58.975Z,100.00
2023-05-08T05:30:00.770Z,100.00
2023-05-08T05:35:02.358Z,100.00
2023-05-08T05:40:04.246Z,100.00
2023-05-08T05:45:07.819Z,100.00
2023-05-08T05:50:10.459Z,100.00
2023-05-08T05:55:12.887Z,100.00
2023-05-08T06:00:15.273Z,100.00
2023-05-08T06:05:20.059Z,100.00
2023-05-08T06:10:21.623Z,100.00
2023-05-08T06:15:23.487Z,100.00
2023-05-08T06:20:26.389Z,100.00
2023-05-08T06:25:28.153Z,100.00
2023-05-08T06:30:29.669Z,100.00
2023-05-08T06:35:31.233Z,100.00
2023-05-08T06:40:32.652Z,100.00
2023-05-08T06:45:34.084Z,100.00
2023-05-08T06:50:37.864Z,100.00
2023-05-08T06:55:42.224Z,100.00
2023-05-08T07:00:43.578Z,100.00
2023-05-08T07:05:44.996Z,100.00
2023-05-08T07:10:46.348Z,100.00
2023-05-08T07:15:47.904Z,100.00
2023-05-08T07:20:49.250Z,100.00
2023-05-08T07:25:50.646Z,100.00
2023-05-08T07:30:52.031Z,100.00
2023-05-08T07:35:53.665Z,100.00
2023-05-08T07:40:57.512Z,100.00
2023-05-08T07:45:59.034Z,100.00
2023-05-08T07:51:00.406Z,100.00
2023-05-08T07:56:01.802Z,100.00
2023-05-08T08:01:03.423Z,100.00
2023-05-08T08:06:04.794Z,100.00
2023-05-08T08:11:06.975Z,100.00
2023-05-08T08:16:08.458Z,100.00
2023-05-08T08:21:09.837Z,100.00
2023-05-08T08:26:11.265Z,100.00
2023-05-08T08:31:12.697Z,100.00
2023-05-08T08:36:14.718Z,100.00
2023-05-08T08:41:16.286Z,98.47
2023-05-08T08:46:20.101Z,97.43
2023-05-08T08:51:28.317Z,97.31
2023-05-08T08:56:30.662Z,96.31
2023-05-08T09:01:34.266Z,97.98
2023-05-08T09:06:36.533Z,94.46
2023-05-08T09:11:38.671Z,90.18
2023-05-08T09:16:40.168Z,91.30
2023-05-08T09:21:41.707Z,89.89
2023-05-08T09:26:43.142Z,88.63
2023-05-08T09:31:45.751Z,88.04
2023-05-08T09:36:47.211Z,87.74
2023-05-08T09:42:01.138Z,86.23
2023-05-08T09:47:12.613Z,86.47
2023-05-08T09:52:15.578Z,86.81
2023-05-08T09:57:16.966Z,87.33
2023-05-08T10:02:20.183Z,85.14
2023-05-08T10:07:34.900Z,81.67
2023-05-08T10:12:37.851Z,84.23
2023-05-08T10:17:53.717Z,83.37
2023-05-08T10:22:56.718Z,84.07
2023-05-08T10:28:07.367Z,83.34
2023-05-08T10:33:10.299Z,81.82
2023-05-08T10:38:12.199Z,85.48
2023-05-08T10:43:14.442Z,81.40
2023-05-08T10:48:22.218Z,81.78
2023-05-08T10:53:42.210Z,80.67
2023-05-08T10:58:43.712Z,73.11
2023-05-08T11:03:46.654Z,76.89
2023-05-08T11:08:49.462Z,78.61
2023-05-08T11:13:53.718Z,75.95
2023-05-08T11:19:14.032Z,76.51
2023-05-08T11:24:15.919Z,74.96
2023-05-08T11:29:17.683Z,76.20
2023-05-08T11:34:38.083Z,74.89
2023-05-08T11:39:39.629Z,75.09
2023-05-08T11:44:41.083Z,72.92
2023-05-08T11:49:42.786Z,72.08
2023-05-08T11:54:44.199Z,73.91
2023-05-08T11:59:49.556Z,75.39
2023-05-08T12:04:50.897Z,73.91
2023-05-08T12:09:52.386Z,72.87
2023-05-08T12:14:53.838Z,73.34
2023-05-08T12:19:56.403Z,72.03
2023-05-08T12:24:57.807Z,75.15
2023-05-08T12:29:59.202Z,74.86
2023-05-08T12:35:00.701Z,76.60
2023-05-08T12:40:02.731Z,74.75
2023-05-08T12:45:04.297Z,77.71
2023-05-08T12:50:05.972Z,76.36
2023-05-08T12:55:20.115Z,77.14
2023-05-08T13:00:21.563Z,77.99
2023-05-08T13:05:23.352Z,77.19
2023-05-08T13:10:26.082Z,77.34
2023-05-08T13:15:28.913Z,77.09
2023-05-08T13:20:30.280Z,77.15
2023-05-08T13:25:32.132Z,77.30
2023-05-08T13:30:33.879Z,76.59
2023-05-08T13:35:35.567Z,77.14
2023-05-08T13:40:36.992Z,74.58
2023-05-08T13:45:38.481Z,74.19
2023-05-08T13:50:39.897Z,80.71
2023-05-08T13:55:42.185Z,82.17
2023-05-08T14:00:43.543Z,84.00
2023-05-08T14:05:44.881Z,83.25
2023-05-08T14:10:46.353Z,82.88
2023-05-08T14:15:47.816Z,83.44
2023-05-08T14:20:56.953Z,85.58
2023-05-08T14:25:58.983Z,83.68
2023-05-08T14:31:00.511Z,85.90
2023-05-08T14:36:01.866Z,86.75
2023-05-08T14:41:04.576Z,86.58
2023-05-08T14:46:06.443Z,86.49
2023-05-08T14:51:07.986Z,85.83
2023-05-08T14:56:09.547Z,85.04
2023-05-08T15:01:11.142Z,83.40
2023-05-08T15:06:12.556Z,81.08
2023-05-08T15:11:14.150Z,83.40
2023-05-08T15:16:15.539Z,80.11
2023-05-08T15:21:16.913Z,81.92
2023-05-08T15:26:18.374Z,79.86
2023-05-08T15:31:19.787Z,76.56
2023-05-08T15:36:21.238Z,75.78
2023-05-08T15:41:22.600Z,77.07
2023-05-08T15:46:23.977Z,76.57
2023-05-08T15:51:25.401Z,77.50
2023-05-08T15:56:26.909Z,76.02
2023-05-08T16:01:28.318Z,75.18
2023-05-08T16:06:29.734Z,74.31
2023-05-08T16:11:31.938Z,75.15
2023-05-08T16:16:33.348Z,75.51
2023-05-08T16:21:34.733Z,76.31
2023-05-08T16:26:36.078Z,77.33
2023-05-08T16:31:37.472Z,77.41
2023-05-08T16:36:38.890Z,77.36
2023-05-08T16:41:40.315Z,77.40
2023-05-08T16:46:41.819Z,77.63
2023-05-08T16:51:43.224Z,77.58
2023-05-08T16:56:44.603Z,79.12
2023-05-08T17:01:45.976Z,79.64
2023-05-08T17:06:47.337Z,79.92
2023-05-08T17:11:48.679Z,79.67
2023-05-08T17:16:50.111Z,78.69
2023-05-08T17:21:51.526Z,80.01
2023-05-08T17:26:53.047Z,80.62
2023-05-08T17:31:54.472Z,80.86
2023-05-08T17:36:55.838Z,81.10
2023-05-08T17:41:57.226Z,81.90
2023-05-08T17:46:58.649Z,82.07
2023-05-08T17:51:59.978Z,82.44
2023-05-08T17:57:01.617Z,83.46
2023-05-08T18:02:03.066Z,84.93
2023-05-08T18:07:04.529Z,85.83
2023-05-08T18:12:06.076Z,86.93
2023-05-08T18:17:07.794Z,86.20
2023-05-08T18:22:09.203Z,85.93
2023-05-08T18:27:10.554Z,86.19
2023-05-08T18:32:11.972Z,87.01
2023-05-08T18:37:13.320Z,86.81
2023-05-08T18:42:14.677Z,86.99
2023-05-08T18:47:16.215Z,88.29
2023-05-08T18:52:17.587Z,88.21
2023-05-08T18:57:18.946Z,89.29
2023-05-08T19:02:20.618Z,90.69
2023-05-08T19:07:22.048Z,91.05
2023-05-08T19:12:23.393Z,90.39
2023-05-08T19:17:24.850Z,89.53
2023-05-08T19:22:26.183Z,88.79
2023-05-08T19:27:28.977Z,89.55
2023-05-08T19:32:30.441Z,90.92
2023-05-08T19:37:31.930Z,92.35
2023-05-08T19:42:33.512Z,92.83
2023-05-08T19:47:35.086Z,93.08
2023-05-08T19:52:36.502Z,94.29
2023-05-08T19:57:37.877Z,94.10
2023-05-08T20:02:39.562Z,94.66
2023-05-08T20:07:41.056Z,93.64
2023-05-08T20:12:43.719Z,93.92
2023-05-08T20:17:45.262Z,94.11
2023-05-08T20:22:46.642Z,92.34
2023-05-08T20:27:48.091Z,93.21
2023-05-08T20:32:49.552Z,92.10
2023-05-08T20:37:50.957Z,91.62
2023-05-08T20:42:52.323Z,93.67
2023-05-08T20:47:53.728Z,94.38
2023-05-08T20:52:55.104Z,95.15
2023-05-08T20:57:56.490Z,95.58
2023-05-08T21:02:57.938Z,95.12
2023-05-08T21:08:02.093Z,95.55
2023-05-08T21:13:03.713Z,94.17
2023-05-08T21:18:05.928Z,93.25
2023-05-08T21:23:07.307Z,94.03
2023-05-08T21:28:12.128Z,93.79
2023-05-08T21:33:14.006Z,94.28
2023-05-08T21:38:15.537Z,94.21
2023-05-08T21:43:16.924Z,96.02
2023-05-08T21:48:18.410Z,95.84
2023-05-08T21:53:19.761Z,96.77
2023-05-08T21:58:21.142Z,95.82
2023-05-08T22:03:22.691Z,97.22
2023-05-08T22:08:24.156Z,98.80
2023-05-08T22:13:25.811Z,96.87
2023-05-08T22:18:27.357Z,99.08
2023-05-08T22:23:28.875Z,97.67
2023-05-08T22:28:30.412Z,97.49
2023-05-08T22:33:33.844Z,97.01
2023-05-08T22:38:35.204Z,97.52
2023-05-08T22:43:37.053Z,97.95
2023-05-08T22:48:38.495Z,97.39
2023-05-08T22:53:39.875Z,99.59
2023-05-08T22:58:41.289Z,98.86
2023-05-08T23:03:42.716Z,98.27
2023-05-08T23:08:44.085Z,100.00
2023-05-08T23:13:45.508Z,100.00
2023-05-08T23:18:47.005Z,100.00
2023-05-08T23:23:48.419Z,100.00
2023-05-08T23:28:52.265Z,100.00
2023-05-08T23:33:53.840Z,100.00
2023-05-08T23:38:55.283Z,100.00
2023-05-08T23:43:56.957Z,100.00
2023-05-08T23:48:58.362Z,100.00
2023-05-08T23:53:59.701Z,100.00
2023-05-08T23:59:01.233Z,100.00
